sensor_id;sensor_type;location;lat;lon;timestamp;temperature;humidity
45761;DHT22;31471;51.040;14.414;2022-07-29T00:00:06;13.50;99.90
45761;DHT22;31471;51.040;14.414;2022-07-29T00:02:32;13.20;99.90
45761;DHT22;31471;51.040;14.414;2022-07-29T00:04:58;12.90;99.90
45761;DHT22;31471;51.040;14.414;2022-07-29T00:07:24;12.80;99.90
45761;DHT22;31471;51.040;14.414;2022-07-29T00:09:50;12.90;99.90
45761;DHT22;31471;51.040;14.414;2022-07-29T00:12:15;12.90;99.90
45761;DHT22;31471;51.040;14.414;2022-07-29T00:14:41;13.00;99.90
45761;DHT22;31471;51.040;14.414;2022-07-29T00:17:06;13.00;99.90
45761;DHT22;31471;51.040;14.414;2022-07-29T00:19:32;13.10;99.90
45761;DHT22;31471;51.040;14.414;2022-07-29T00:21:59;13.10;99.90
45761;DHT22;31471;51.040;14.414;2022-07-29T00:24:25;13.00;99.90
45761;DHT22;31471;51.040;14.414;2022-07-29T00:26:50;13.00;99.90
45761;DHT22;31471;51.040;14.414;2022-07-29T00:29:16;13.00;99.90
45761;DHT22;31471;51.040;14.414;2022-07-29T00:31:41;12.90;99.90
45761;DHT22;31471;51.040;14.414;2022-07-29T00:34:07;13.00;99.90
45761;DHT22;31471;51.040;14.414;2022-07-29T00:36:52;13.00;99.90
45761;DHT22;31471;51.040;14.414;2022-07-29T00:39:18;13.00;99.90
45761;DHT22;31471;51.040;14.414;2022-07-29T00:41:43;12.90;99.90
45761;DHT22;31471;51.040;14.414;2022-07-29T00:44:09;12.80;99.90
45761;DHT22;31471;51.040;14.414;2022-07-29T00:46:35;12.80;99.90
45761;DHT22;31471;51.040;14.414;2022-07-29T00:49:00;12.60;99.90
45761;DHT22;31471;51.040;14.414;2022-07-29T00:51:27;12.50;99.90
45761;DHT22;31471;51.040;14.414;2022-07-29T00:53:53;12.40;99.90
45761;DHT22;31471;51.040;14.414;2022-07-29T00:56:19;12.50;99.90
45761;DHT22;31471;51.040;14.414;2022-07-29T00:58:46;12.50;99.90
45761;DHT22;31471;51.040;14.414;2022-07-29T01:01:12;12.60;99.90
45761;DHT22;31471;51.040;14.414;2022-07-29T01:03:37;12.50;99.90
45761;DHT22;31471;51.040;14.414;2022-07-29T01:06:03;12.50;99.90
45761;DHT22;31471;51.040;14.414;2022-07-29T01:08:30;12.30;99.90
45761;DHT22;31471;51.040;14.414;2022-07-29T01:10:56;12.30;99.90
45761;DHT22;31471;51.040;14.414;2022-07-29T01:13:22;12.40;99.90
45761;DHT22;31471;51.040;14.414;2022-07-29T01:15:54;12.50;99.90
45761;DHT22;31471;51.040;14.414;2022-07-29T01:18:32;12.50;99.90
45761;DHT22;31471;51.040;14.414;2022-07-29T01:24:05;12.30;99.90
45761;DHT22;31471;51.040;14.414;2022-07-29T01:29:29;12.00;99.90
45761;DHT22;31471;51.040;14.414;2022-07-29T01:32:05;12.00;99.90
45761;DHT22;31471;51.040;14.414;2022-07-29T01:37:28;12.10;99.90
45761;DHT22;31471;51.040;14.414;2022-07-29T01:39:57;12.10;99.90
45761;DHT22;31471;51.040;14.414;2022-07-29T01:42:43;12.10;99.90
45761;DHT22;31471;51.040;14.414;2022-07-29T01:45:17;12.20;99.90
45761;DHT22;31471;51.040;14.414;2022-07-29T01:47:52;12.10;99.90
45761;DHT22;31471;51.040;14.414;2022-07-29T01:50:23;12.10;99.90
45761;DHT22;31471;51.040;14.414;2022-07-29T01:53:05;12.00;99.90
45761;DHT22;31471;51.040;14.414;2022-07-29T01:55:35;11.80;99.90
45761;DHT22;31471;51.040;14.414;2022-07-29T01:58:04;11.80;99.90
45761;DHT22;31471;51.040;14.414;2022-07-29T02:00:32;11.70;99.90
45761;DHT22;31471;51.040;14.414;2022-07-29T02:03:00;11.70;99.90
45761;DHT22;31471;51.040;14.414;2022-07-29T02:05:28;11.70;99.90
45761;DHT22;31471;51.040;14.414;2022-07-29T02:07:55;11.80;99.90
45761;DHT22;31471;51.040;14.414;2022-07-29T02:10:25;11.80;99.90
45761;DHT22;31471;51.040;14.414;2022-07-29T02:12:52;11.80;99.90
45761;DHT22;31471;51.040;14.414;2022-07-29T02:15:19;11.70;99.90
45761;DHT22;31471;51.040;14.414;2022-07-29T02:17:55;11.80;99.90
45761;DHT22;31471;51.040;14.414;2022-07-29T02:20:22;11.80;99.90
45761;DHT22;31471;51.040;14.414;2022-07-29T02:22:51;11.70;99.90
45761;DHT22;31471;51.040;14.414;2022-07-29T02:25:18;11.60;99.90
45761;DHT22;31471;51.040;14.414;2022-07-29T02:27:44;11.60;99.90
45761;DHT22;31471;51.040;14.414;2022-07-29T02:30:12;11.60;99.90
45761;DHT22;31471;51.040;14.414;2022-07-29T02:32:39;11.70;99.90
45761;DHT22;31471;51.040;14.414;2022-07-29T02:35:07;11.60;99.90
45761;DHT22;31471;51.040;14.414;2022-07-29T02:37:33;11.60;99.90
45761;DHT22;31471;51.040;14.414;2022-07-29T02:40:01;11.50;99.90
45761;DHT22;31471;51.040;14.414;2022-07-29T02:42:27;11.50;99.90
45761;DHT22;31471;51.040;14.414;2022-07-29T02:44:54;11.60;99.90
45761;DHT22;31471;51.040;14.414;2022-07-29T02:47:47;11.70;99.90
45761;DHT22;31471;51.040;14.414;2022-07-29T02:50:20;11.70;99.90
45761;DHT22;31471;51.040;14.414;2022-07-29T02:52:52;11.60;99.90
45761;DHT22;31471;51.040;14.414;2022-07-29T02:55:26;11.60;99.90
45761;DHT22;31471;51.040;14.414;2022-07-29T02:58:09;11.80;99.90
45761;DHT22;31471;51.040;14.414;2022-07-29T03:00:38;11.80;99.90
45761;DHT22;31471;51.040;14.414;2022-07-29T03:03:12;11.90;99.90
45761;DHT22;31471;51.040;14.414;2022-07-29T03:05:39;11.90;99.90
45761;DHT22;31471;51.040;14.414;2022-07-29T03:08:07;11.90;99.90
45761;DHT22;31471;51.040;14.414;2022-07-29T03:10:34;11.90;99.90
45761;DHT22;31471;51.040;14.414;2022-07-29T03:13:00;11.90;99.90
45761;DHT22;31471;51.040;14.414;2022-07-29T03:15:26;11.80;99.90
45761;DHT22;31471;51.040;14.414;2022-07-29T03:17:52;11.70;99.90
45761;DHT22;31471;51.040;14.414;2022-07-29T03:20:18;11.70;99.90
45761;DHT22;31471;51.040;14.414;2022-07-29T03:22:44;11.70;99.90
45761;DHT22;31471;51.040;14.414;2022-07-29T03:25:14;11.70;99.90
45761;DHT22;31471;51.040;14.414;2022-07-29T03:27:40;11.70;99.90
45761;DHT22;31471;51.040;14.414;2022-07-29T03:30:07;11.80;99.90
45761;DHT22;31471;51.040;14.414;2022-07-29T03:32:33;11.90;99.90
45761;DHT22;31471;51.040;14.414;2022-07-29T03:34:59;11.90;99.90
45761;DHT22;31471;51.040;14.414;2022-07-29T03:37:25;11.90;99.90
45761;DHT22;31471;51.040;14.414;2022-07-29T03:39:52;12.00;99.90
45761;DHT22;31471;51.040;14.414;2022-07-29T03:42:21;12.00;99.90
45761;DHT22;31471;51.040;14.414;2022-07-29T03:44:50;11.90;99.90
45761;DHT22;31471;51.040;14.414;2022-07-29T03:47:19;11.90;99.90
45761;DHT22;31471;51.040;14.414;2022-07-29T03:49:48;11.90;99.90
45761;DHT22;31471;51.040;14.414;2022-07-29T03:52:15;11.90;99.90
45761;DHT22;31471;51.040;14.414;2022-07-29T03:54:40;12.00;99.90
45761;DHT22;31471;51.040;14.414;2022-07-29T03:57:07;11.90;99.90
45761;DHT22;31471;51.040;14.414;2022-07-29T03:59:33;11.80;99.90
45761;DHT22;31471;51.040;14.414;2022-07-29T04:02:01;11.90;99.90
45761;DHT22;31471;51.040;14.414;2022-07-29T04:04:28;12.10;99.90
45761;DHT22;31471;51.040;14.414;2022-07-29T04:06:54;12.10;99.90
45761;DHT22;31471;51.040;14.414;2022-07-29T04:09:19;12.20;99.90
45761;DHT22;31471;51.040;14.414;2022-07-29T04:11:45;12.30;99.90
45761;DHT22;31471;51.040;14.414;2022-07-29T04:14:11;12.40;99.90
45761;DHT22;31471;51.040;14.414;2022-07-29T04:16:36;12.40;99.90
45761;DHT22;31471;51.040;14.414;2022-07-29T04:19:02;12.30;99.90
45761;DHT22;31471;51.040;14.414;2022-07-29T04:21:27;12.40;99.90
45761;DHT22;31471;51.040;14.414;2022-07-29T04:23:53;12.40;99.90
45761;DHT22;31471;51.040;14.414;2022-07-29T04:26:19;12.40;99.90
45761;DHT22;31471;51.040;14.414;2022-07-29T04:28:45;12.50;99.90
45761;DHT22;31471;51.040;14.414;2022-07-29T04:31:11;12.60;99.90
45761;DHT22;31471;51.040;14.414;2022-07-29T04:33:37;12.60;99.90
45761;DHT22;31471;51.040;14.414;2022-07-29T04:36:03;12.70;99.90
45761;DHT22;31471;51.040;14.414;2022-07-29T04:38:28;12.70;99.90
45761;DHT22;31471;51.040;14.414;2022-07-29T04:40:54;12.50;99.90
45761;DHT22;31471;51.040;14.414;2022-07-29T04:43:19;12.50;99.90
45761;DHT22;31471;51.040;14.414;2022-07-29T04:45:45;12.50;99.90
45761;DHT22;31471;51.040;14.414;2022-07-29T04:48:10;12.60;99.90
45761;DHT22;31471;51.040;14.414;2022-07-29T04:50:40;12.60;99.90
45761;DHT22;31471;51.040;14.414;2022-07-29T04:53:06;12.70;99.90
45761;DHT22;31471;51.040;14.414;2022-07-29T04:55:31;12.80;99.90
45761;DHT22;31471;51.040;14.414;2022-07-29T04:57:57;12.70;99.90
45761;DHT22;31471;51.040;14.414;2022-07-29T05:00:22;12.80;99.90
45761;DHT22;31471;51.040;14.414;2022-07-29T05:02:49;12.90;99.90
45761;DHT22;31471;51.040;14.414;2022-07-29T05:05:14;12.80;99.90
45761;DHT22;31471;51.040;14.414;2022-07-29T05:07:40;12.90;99.90
45761;DHT22;31471;51.040;14.414;2022-07-29T05:10:06;13.00;99.90
45761;DHT22;31471;51.040;14.414;2022-07-29T05:12:31;13.00;99.90
45761;DHT22;31471;51.040;14.414;2022-07-29T05:14:57;13.00;99.90
45761;DHT22;31471;51.040;14.414;2022-07-29T05:17:22;12.90;99.90
45761;DHT22;31471;51.040;14.414;2022-07-29T05:19:48;12.90;99.90
45761;DHT22;31471;51.040;14.414;2022-07-29T05:22:15;12.90;99.90
45761;DHT22;31471;51.040;14.414;2022-07-29T05:24:41;13.00;99.90
45761;DHT22;31471;51.040;14.414;2022-07-29T05:27:06;13.10;99.90
45761;DHT22;31471;51.040;14.414;2022-07-29T05:29:32;13.10;99.90
45761;DHT22;31471;51.040;14.414;2022-07-29T05:31:57;13.10;99.90
45761;DHT22;31471;51.040;14.414;2022-07-29T05:34:23;13.20;99.90
45761;DHT22;31471;51.040;14.414;2022-07-29T05:36:50;13.30;99.90
45761;DHT22;31471;51.040;14.414;2022-07-29T05:39:16;13.40;99.90
45761;DHT22;31471;51.040;14.414;2022-07-29T05:41:41;13.40;99.90
45761;DHT22;31471;51.040;14.414;2022-07-29T05:44:07;13.50;99.90
45761;DHT22;31471;51.040;14.414;2022-07-29T05:46:32;13.60;99.90
45761;DHT22;31471;51.040;14.414;2022-07-29T05:48:58;13.60;99.90
45761;DHT22;31471;51.040;14.414;2022-07-29T05:51:23;13.60;99.90
45761;DHT22;31471;51.040;14.414;2022-07-29T05:53:49;13.70;99.90
45761;DHT22;31471;51.040;14.414;2022-07-29T05:56:14;13.90;99.90
45761;DHT22;31471;51.040;14.414;2022-07-29T05:58:40;14.10;99.90
45761;DHT22;31471;51.040;14.414;2022-07-29T06:01:06;14.10;99.90
45761;DHT22;31471;51.040;14.414;2022-07-29T06:03:31;14.30;99.90
45761;DHT22;31471;51.040;14.414;2022-07-29T06:05:57;14.50;99.90
45761;DHT22;31471;51.040;14.414;2022-07-29T06:08:23;14.80;99.90
45761;DHT22;31471;51.040;14.414;2022-07-29T06:10:48;14.90;99.90
45761;DHT22;31471;51.040;14.414;2022-07-29T06:13:14;15.10;99.90
45761;DHT22;31471;51.040;14.414;2022-07-29T06:15:41;15.30;99.90
45761;DHT22;31471;51.040;14.414;2022-07-29T06:18:07;15.40;99.90
45761;DHT22;31471;51.040;14.414;2022-07-29T06:20:35;15.50;99.90
45761;DHT22;31471;51.040;14.414;2022-07-29T06:23:00;15.70;99.90
45761;DHT22;31471;51.040;14.414;2022-07-29T06:25:27;15.90;99.90
45761;DHT22;31471;51.040;14.414;2022-07-29T06:27:56;16.10;99.90
45761;DHT22;31471;51.040;14.414;2022-07-29T06:30:22;16.20;99.90
45761;DHT22;31471;51.040;14.414;2022-07-29T06:32:47;16.30;99.90
45761;DHT22;31471;51.040;14.414;2022-07-29T06:35:13;16.50;99.90
45761;DHT22;31471;51.040;14.414;2022-07-29T06:37:39;16.60;99.90
45761;DHT22;31471;51.040;14.414;2022-07-29T06:40:04;16.80;99.90
45761;DHT22;31471;51.040;14.414;2022-07-29T06:42:48;17.00;99.90
45761;DHT22;31471;51.040;14.414;2022-07-29T06:45:14;17.10;99.90
45761;DHT22;31471;51.040;14.414;2022-07-29T06:47:41;17.10;99.90
45761;DHT22;31471;51.040;14.414;2022-07-29T06:50:07;17.20;99.90
45761;DHT22;31471;51.040;14.414;2022-07-29T06:52:36;17.40;99.90
45761;DHT22;31471;51.040;14.414;2022-07-29T06:55:02;17.70;99.90
45761;DHT22;31471;51.040;14.414;2022-07-29T06:57:27;17.80;99.90
45761;DHT22;31471;51.040;14.414;2022-07-29T06:59:53;17.90;99.90
45761;DHT22;31471;51.040;14.414;2022-07-29T07:02:21;18.20;99.90
45761;DHT22;31471;51.040;14.414;2022-07-29T07:04:46;18.40;99.90
45761;DHT22;31471;51.040;14.414;2022-07-29T07:07:12;18.60;99.90
45761;DHT22;31471;51.040;14.414;2022-07-29T07:09:37;18.80;99.90
45761;DHT22;31471;51.040;14.414;2022-07-29T07:12:03;19.10;99.90
45761;DHT22;31471;51.040;14.414;2022-07-29T07:14:29;19.40;99.90
45761;DHT22;31471;51.040;14.414;2022-07-29T07:16:54;19.60;99.90
45761;DHT22;31471;51.040;14.414;2022-07-29T07:19:20;19.90;99.90
45761;DHT22;31471;51.040;14.414;2022-07-29T07:21:45;20.00;99.90
45761;DHT22;31471;51.040;14.414;2022-07-29T07:24:11;20.10;99.90
45761;DHT22;31471;51.040;14.414;2022-07-29T07:26:36;20.40;99.90
45761;DHT22;31471;51.040;14.414;2022-07-29T07:29:03;20.70;99.90
45761;DHT22;31471;51.040;14.414;2022-07-29T07:31:28;20.90;99.90
45761;DHT22;31471;51.040;14.414;2022-07-29T07:33:55;21.20;99.90
45761;DHT22;31471;51.040;14.414;2022-07-29T07:36:20;21.40;99.90
45761;DHT22;31471;51.040;14.414;2022-07-29T07:38:46;21.60;99.90
45761;DHT22;31471;51.040;14.414;2022-07-29T07:41:11;21.80;99.90
45761;DHT22;31471;51.040;14.414;2022-07-29T07:43:37;22.10;99.90
45761;DHT22;31471;51.040;14.414;2022-07-29T07:46:03;22.10;99.90
45761;DHT22;31471;51.040;14.414;2022-07-29T07:48:28;22.30;99.90
45761;DHT22;31471;51.040;14.414;2022-07-29T07:50:54;22.80;99.90
45761;DHT22;31471;51.040;14.414;2022-07-29T07:53:19;22.90;99.90
45761;DHT22;31471;51.040;14.414;2022-07-29T07:55:45;22.90;99.90
45761;DHT22;31471;51.040;14.414;2022-07-29T07:58:10;23.10;98.90
45761;DHT22;31471;51.040;14.414;2022-07-29T08:00:36;23.30;99.50
45761;DHT22;31471;51.040;14.414;2022-07-29T08:03:01;23.30;98.20
45761;DHT22;31471;51.040;14.414;2022-07-29T08:05:27;23.40;96.30
45761;DHT22;31471;51.040;14.414;2022-07-29T08:07:53;23.50;97.20
45761;DHT22;31471;51.040;14.414;2022-07-29T08:10:19;23.60;97.70
45761;DHT22;31471;51.040;14.414;2022-07-29T08:13:04;23.70;96.40
45761;DHT22;31471;51.040;14.414;2022-07-29T08:15:30;24.10;97.30
45761;DHT22;31471;51.040;14.414;2022-07-29T08:17:55;23.90;95.00
45761;DHT22;31471;51.040;14.414;2022-07-29T08:20:21;24.30;93.90
45761;DHT22;31471;51.040;14.414;2022-07-29T08:22:46;24.70;94.80
45761;DHT22;31471;51.040;14.414;2022-07-29T08:25:12;24.90;95.60
45761;DHT22;31471;51.040;14.414;2022-07-29T08:27:37;24.90;93.10
45761;DHT22;31471;51.040;14.414;2022-07-29T08:30:03;25.10;94.70
45761;DHT22;31471;51.040;14.414;2022-07-29T08:32:29;25.20;93.40
45761;DHT22;31471;51.040;14.414;2022-07-29T08:34:56;25.70;93.70
45761;DHT22;31471;51.040;14.414;2022-07-29T08:37:22;25.90;93.60
45761;DHT22;31471;51.040;14.414;2022-07-29T08:39:47;26.10;93.90
45761;DHT22;31471;51.040;14.414;2022-07-29T08:42:13;26.30;92.50
45761;DHT22;31471;51.040;14.414;2022-07-29T08:44:39;26.20;92.30
45761;DHT22;31471;51.040;14.414;2022-07-29T08:47:05;26.30;90.90
45761;DHT22;31471;51.040;14.414;2022-07-29T08:49:33;26.10;91.20
45761;DHT22;31471;51.040;14.414;2022-07-29T08:52:00;26.00;91.10
45761;DHT22;31471;51.040;14.414;2022-07-29T08:54:25;26.20;91.00
45761;DHT22;31471;51.040;14.414;2022-07-29T08:56:51;26.40;92.00
45761;DHT22;31471;51.040;14.414;2022-07-29T08:59:19;26.40;91.80
45761;DHT22;31471;51.040;14.414;2022-07-29T09:01:46;26.30;91.30
45761;DHT22;31471;51.040;14.414;2022-07-29T09:04:15;26.20;90.60
45761;DHT22;31471;51.040;14.414;2022-07-29T09:06:47;26.20;90.70
45761;DHT22;31471;51.040;14.414;2022-07-29T09:09:13;26.30;90.00
45761;DHT22;31471;51.040;14.414;2022-07-29T09:11:39;26.50;91.10
45761;DHT22;31471;51.040;14.414;2022-07-29T09:14:05;26.70;90.10
45761;DHT22;31471;51.040;14.414;2022-07-29T09:16:47;26.90;90.30
45761;DHT22;31471;51.040;14.414;2022-07-29T09:19:23;26.90;90.10
45761;DHT22;31471;51.040;14.414;2022-07-29T09:21:48;26.90;89.00
45761;DHT22;31471;51.040;14.414;2022-07-29T09:24:45;26.70;85.80
45761;DHT22;31471;51.040;14.414;2022-07-29T09:27:23;26.50;88.60
45761;DHT22;31471;51.040;14.414;2022-07-29T09:29:56;26.50;87.90
45761;DHT22;31471;51.040;14.414;2022-07-29T09:32:22;26.60;89.10
45761;DHT22;31471;51.040;14.414;2022-07-29T09:34:48;26.70;87.70
45761;DHT22;31471;51.040;14.414;2022-07-29T09:37:28;26.50;87.10
45761;DHT22;31471;51.040;14.414;2022-07-29T09:39:54;26.80;88.60
45761;DHT22;31471;51.040;14.414;2022-07-29T09:42:29;26.80;87.00
45761;DHT22;31471;51.040;14.414;2022-07-29T09:44:57;26.90;85.30
45761;DHT22;31471;51.040;14.414;2022-07-29T09:47:44;26.70;85.40
45761;DHT22;31471;51.040;14.414;2022-07-29T09:50:15;27.00;85.40
45761;DHT22;31471;51.040;14.414;2022-07-29T09:52:51;27.10;85.70
45761;DHT22;31471;51.040;14.414;2022-07-29T09:55:17;27.10;83.00
45761;DHT22;31471;51.040;14.414;2022-07-29T09:57:43;26.80;83.60
45761;DHT22;31471;51.040;14.414;2022-07-29T10:00:15;27.10;82.00
45761;DHT22;31471;51.040;14.414;2022-07-29T10:02:43;27.30;81.50
45761;DHT22;31471;51.040;14.414;2022-07-29T10:07:56;27.10;82.30
45761;DHT22;31471;51.040;14.414;2022-07-29T10:10:27;27.40;81.40
45761;DHT22;31471;51.040;14.414;2022-07-29T10:13:12;27.40;81.20
45761;DHT22;31471;51.040;14.414;2022-07-29T10:15:41;27.60;80.10
45761;DHT22;31471;51.040;14.414;2022-07-29T10:18:09;27.80;79.70
45761;DHT22;31471;51.040;14.414;2022-07-29T10:20:36;27.90;79.80
45761;DHT22;31471;51.040;14.414;2022-07-29T10:23:02;27.90;79.70
45761;DHT22;31471;51.040;14.414;2022-07-29T10:25:28;28.10;80.30
45761;DHT22;31471;51.040;14.414;2022-07-29T10:27:54;28.10;79.00
45761;DHT22;31471;51.040;14.414;2022-07-29T10:30:21;27.90;78.20
45761;DHT22;31471;51.040;14.414;2022-07-29T10:35:53;28.10;80.90
45761;DHT22;31471;51.040;14.414;2022-07-29T10:41:32;28.10;79.10
45761;DHT22;31471;51.040;14.414;2022-07-29T10:44:02;28.00;79.50
45761;DHT22;31471;51.040;14.414;2022-07-29T10:46:38;27.90;77.90
45761;DHT22;31471;51.040;14.414;2022-07-29T10:49:11;27.80;79.80
45761;DHT22;31471;51.040;14.414;2022-07-29T10:51:58;27.90;78.30
45761;DHT22;31471;51.040;14.414;2022-07-29T10:57:20;28.40;79.60
45761;DHT22;31471;51.040;14.414;2022-07-29T10:59:51;28.20;76.60
45761;DHT22;31471;51.040;14.414;2022-07-29T11:04:59;28.70;78.70
45761;DHT22;31471;51.040;14.414;2022-07-29T11:07:26;28.90;77.10
45761;DHT22;31471;51.040;14.414;2022-07-29T11:15:09;29.00;75.90
45761;DHT22;31471;51.040;14.414;2022-07-29T11:20:39;29.50;75.10
45761;DHT22;31471;51.040;14.414;2022-07-29T11:23:20;29.50;72.00
45761;DHT22;31471;51.040;14.414;2022-07-29T11:31:39;30.00;70.00
45761;DHT22;31471;51.040;14.414;2022-07-29T11:39:33;30.50;69.80
45761;DHT22;31471;51.040;14.414;2022-07-29T11:45:19;30.20;70.10
45761;DHT22;31471;51.040;14.414;2022-07-29T11:50:13;29.30;71.60
45761;DHT22;31471;51.040;14.414;2022-07-29T11:52:44;29.50;70.90
45761;DHT22;31471;51.040;14.414;2022-07-29T11:55:17;29.50;71.50
45761;DHT22;31471;51.040;14.414;2022-07-29T11:58:01;28.90;69.00
45761;DHT22;31471;51.040;14.414;2022-07-29T12:00:32;29.40;71.30
45761;DHT22;31471;51.040;14.414;2022-07-29T12:02:59;29.30;70.30
45761;DHT22;31471;51.040;14.414;2022-07-29T12:05:40;28.50;69.70
45761;DHT22;31471;51.040;14.414;2022-07-29T12:08:08;28.80;69.60
45761;DHT22;31471;51.040;14.414;2022-07-29T12:10:35;28.70;68.80
45761;DHT22;31471;51.040;14.414;2022-07-29T12:13:01;28.80;69.40
45761;DHT22;31471;51.040;14.414;2022-07-29T12:15:26;29.10;71.10
45761;DHT22;31471;51.040;14.414;2022-07-29T12:17:52;29.30;69.50
45761;DHT22;31471;51.040;14.414;2022-07-29T12:20:26;29.20;69.60
45761;DHT22;31471;51.040;14.414;2022-07-29T12:22:52;29.30;68.40
45761;DHT22;31471;51.040;14.414;2022-07-29T12:25:20;29.30;67.80
45761;DHT22;31471;51.040;14.414;2022-07-29T12:27:47;29.70;70.60
45761;DHT22;31471;51.040;14.414;2022-07-29T12:30:14;30.00;68.30
45761;DHT22;31471;51.040;14.414;2022-07-29T12:32:46;30.00;67.00
45761;DHT22;31471;51.040;14.414;2022-07-29T12:35:18;30.30;67.10
45761;DHT22;31471;51.040;14.414;2022-07-29T12:37:48;30.40;65.40
45761;DHT22;31471;51.040;14.414;2022-07-29T12:40:16;30.40;66.50
45761;DHT22;31471;51.040;14.414;2022-07-29T12:43:08;30.20;66.60
45761;DHT22;31471;51.040;14.414;2022-07-29T12:45:35;30.10;66.80
45761;DHT22;31471;51.040;14.414;2022-07-29T12:48:01;30.10;66.30
45761;DHT22;31471;51.040;14.414;2022-07-29T12:50:28;30.30;66.90
45761;DHT22;31471;51.040;14.414;2022-07-29T12:52:53;30.20;66.80
45761;DHT22;31471;51.040;14.414;2022-07-29T12:55:41;30.30;66.80
45761;DHT22;31471;51.040;14.414;2022-07-29T12:58:07;30.40;68.20
45761;DHT22;31471;51.040;14.414;2022-07-29T13:00:33;30.50;64.90
45761;DHT22;31471;51.040;14.414;2022-07-29T13:03:00;30.20;68.90
45761;DHT22;31471;51.040;14.414;2022-07-29T13:05:43;30.10;69.10
45761;DHT22;31471;51.040;14.414;2022-07-29T13:08:14;29.90;69.90
45761;DHT22;31471;51.040;14.414;2022-07-29T13:10:40;29.90;67.50
45761;DHT22;31471;51.040;14.414;2022-07-29T13:13:14;29.60;66.20
45761;DHT22;31471;51.040;14.414;2022-07-29T13:15:42;29.50;67.40
45761;DHT22;31471;51.040;14.414;2022-07-29T13:18:30;29.90;66.50
45761;DHT22;31471;51.040;14.414;2022-07-29T13:20:57;30.00;66.60
45761;DHT22;31471;51.040;14.414;2022-07-29T13:23:22;30.00;66.40
45761;DHT22;31471;51.040;14.414;2022-07-29T13:25:48;29.70;67.20
45761;DHT22;31471;51.040;14.414;2022-07-29T13:28:14;29.80;67.50
45761;DHT22;31471;51.040;14.414;2022-07-29T13:30:40;29.60;67.10
45761;DHT22;31471;51.040;14.414;2022-07-29T13:33:06;29.50;67.70
45761;DHT22;31471;51.040;14.414;2022-07-29T13:35:31;29.60;69.70
45761;DHT22;31471;51.040;14.414;2022-07-29T13:37:57;29.60;67.00
45761;DHT22;31471;51.040;14.414;2022-07-29T13:43:04;28.80;66.70
45761;DHT22;31471;51.040;14.414;2022-07-29T13:45:30;29.20;67.60
45761;DHT22;31471;51.040;14.414;2022-07-29T13:47:56;29.50;66.10
45761;DHT22;31471;51.040;14.414;2022-07-29T13:50:21;29.40;66.10
45761;DHT22;31471;51.040;14.414;2022-07-29T13:52:47;29.60;67.60
45761;DHT22;31471;51.040;14.414;2022-07-29T13:55:13;29.60;68.60
45761;DHT22;31471;51.040;14.414;2022-07-29T13:57:39;29.30;67.70
45761;DHT22;31471;51.040;14.414;2022-07-29T14:00:05;29.70;67.70
45761;DHT22;31471;51.040;14.414;2022-07-29T14:02:33;29.70;66.20
45761;DHT22;31471;51.040;14.414;2022-07-29T14:04:59;29.50;66.00
45761;DHT22;31471;51.040;14.414;2022-07-29T14:07:25;29.80;67.70
45761;DHT22;31471;51.040;14.414;2022-07-29T14:09:50;29.90;69.10
45761;DHT22;31471;51.040;14.414;2022-07-29T14:12:16;30.10;67.60
45761;DHT22;31471;51.040;14.414;2022-07-29T14:14:41;29.90;66.50
45761;DHT22;31471;51.040;14.414;2022-07-29T14:17:07;29.50;65.70
45761;DHT22;31471;51.040;14.414;2022-07-29T14:19:33;29.50;65.70
45761;DHT22;31471;51.040;14.414;2022-07-29T14:22:02;29.50;65.20
45761;DHT22;31471;51.040;14.414;2022-07-29T14:24:28;29.60;65.20
45761;DHT22;31471;51.040;14.414;2022-07-29T14:26:53;29.40;66.10
45761;DHT22;31471;51.040;14.414;2022-07-29T14:29:19;29.80;66.00
45761;DHT22;31471;51.040;14.414;2022-07-29T14:31:44;29.80;67.50
45761;DHT22;31471;51.040;14.414;2022-07-29T14:34:10;29.60;66.30
45761;DHT22;31471;51.040;14.414;2022-07-29T14:36:35;29.50;67.50
45761;DHT22;31471;51.040;14.414;2022-07-29T14:39:01;29.40;67.40
45761;DHT22;31471;51.040;14.414;2022-07-29T14:41:26;29.70;67.90
45761;DHT22;31471;51.040;14.414;2022-07-29T14:43:54;29.50;67.50
45761;DHT22;31471;51.040;14.414;2022-07-29T14:46:19;29.40;66.90
45761;DHT22;31471;51.040;14.414;2022-07-29T14:48:45;29.40;68.50
45761;DHT22;31471;51.040;14.414;2022-07-29T14:51:10;29.50;67.20
45761;DHT22;31471;51.040;14.414;2022-07-29T14:53:37;29.50;67.10
45761;DHT22;31471;51.040;14.414;2022-07-29T14:56:02;29.50;68.60
45761;DHT22;31471;51.040;14.414;2022-07-29T14:58:28;29.40;67.00
45761;DHT22;31471;51.040;14.414;2022-07-29T15:00:53;29.60;67.20
45761;DHT22;31471;51.040;14.414;2022-07-29T15:03:20;29.60;66.60
45761;DHT22;31471;51.040;14.414;2022-07-29T15:05:46;29.70;67.40
45761;DHT22;31471;51.040;14.414;2022-07-29T15:08:11;29.50;68.10
45761;DHT22;31471;51.040;14.414;2022-07-29T15:10:37;29.40;67.70
45761;DHT22;31471;51.040;14.414;2022-07-29T15:13:03;29.30;68.20
45761;DHT22;31471;51.040;14.414;2022-07-29T15:15:28;29.40;68.00
45761;DHT22;31471;51.040;14.414;2022-07-29T15:17:54;29.40;69.00
45761;DHT22;31471;51.040;14.414;2022-07-29T15:20:19;28.90;67.40
45761;DHT22;31471;51.040;14.414;2022-07-29T15:22:46;28.80;68.50
45761;DHT22;31471;51.040;14.414;2022-07-29T15:25:11;28.80;69.30
45761;DHT22;31471;51.040;14.414;2022-07-29T15:27:37;28.40;68.50
45761;DHT22;31471;51.040;14.414;2022-07-29T15:30:03;28.40;68.30
45761;DHT22;31471;51.040;14.414;2022-07-29T15:32:29;28.60;69.20
45761;DHT22;31471;51.040;14.414;2022-07-29T15:34:54;28.60;70.10
45761;DHT22;31471;51.040;14.414;2022-07-29T15:37:20;28.70;69.00
45761;DHT22;31471;51.040;14.414;2022-07-29T15:39:46;28.60;69.20
45761;DHT22;31471;51.040;14.414;2022-07-29T15:42:11;28.50;68.20
45761;DHT22;31471;51.040;14.414;2022-07-29T15:44:37;28.60;68.50
45761;DHT22;31471;51.040;14.414;2022-07-29T15:47:02;28.50;69.70
45761;DHT22;31471;51.040;14.414;2022-07-29T15:49:29;28.50;69.30
45761;DHT22;31471;51.040;14.414;2022-07-29T15:51:59;28.40;68.80
45761;DHT22;31471;51.040;14.414;2022-07-29T15:54:24;28.30;69.70
45761;DHT22;31471;51.040;14.414;2022-07-29T15:56:50;28.30;68.90
45761;DHT22;31471;51.040;14.414;2022-07-29T15:59:15;28.20;68.70
45761;DHT22;31471;51.040;14.414;2022-07-29T16:01:41;28.20;69.10
45761;DHT22;31471;51.040;14.414;2022-07-29T16:04:07;28.20;69.00
45761;DHT22;31471;51.040;14.414;2022-07-29T16:06:32;28.00;69.90
45761;DHT22;31471;51.040;14.414;2022-07-29T16:08:58;27.90;69.80